sensor_id;sensor_type;location;lat;lon;timestamp;pressure;altitude;pressure_sealevel;temperature;humidity
30730;BME280;17476;48.458;7.928;2023-12-20T00:01:35;100262.97;;;6.09;100.00
30730;BME280;17476;48.458;7.928;2023-12-20T00:04:02;100264.88;;;6.07;100.00
30730;BME280;17476;48.458;7.928;2023-12-20T00:06:28;100256.19;;;6.17;100.00
30730;BME280;17476;48.458;7.928;2023-12-20T00:08:54;100265.94;;;6.04;100.00
30730;BME280;17476;48.458;7.928;2023-12-20T00:11:20;100269.28;;;5.95;100.00
30730;BME280;17476;48.458;7.928;2023-12-20T00:13:46;100255.50;;;5.94;100.00
30730;BME280;17476;48.458;7.928;2023-12-20T00:16:11;100253.22;;;6.01;100.00
30730;BME280;17476;48.458;7.928;2023-12-20T00:18:37;100252.06;;;5.94;100.00
30730;BME280;17476;48.458;7.928;2023-12-20T00:21:03;100248.06;;;5.90;100.00
30730;BME280;17476;48.458;7.928;2023-12-20T00:23:29;100242.63;;;5.93;100.00
30730;BME280;17476;48.458;7.928;2023-12-20T00:25:55;100241.44;;;5.97;100.00
30730;BME280;17476;48.458;7.928;2023-12-20T00:28:21;100232.00;;;5.96;100.00
30730;BME280;17476;48.458;7.928;2023-12-20T00:30:46;100234.50;;;5.97;100.00
30730;BME280;17476;48.458;7.928;2023-12-20T00:33:12;100237.09;;;5.97;100.00
30730;BME280;17476;48.458;7.928;2023-12-20T00:35:38;100245.56;;;5.99;100.00
30730;BME280;17476;48.458;7.928;2023-12-20T00:38:04;100236.56;;;6.04;100.00
30730;BME280;17476;48.458;7.928;2023-12-20T00:40:30;100251.56;;;6.00;100.00
30730;BME280;17476;48.458;7.928;2023-12-20T00:42:56;100241.78;;;6.04;100.00
30730;BME280;17476;48.458;7.928;2023-12-20T00:45:22;100236.25;;;5.97;100.00
30730;BME280;17476;48.458;7.928;2023-12-20T00:47:48;100238.59;;;6.00;100.00
30730;BME280;17476;48.458;7.928;2023-12-20T00:50:14;100237.78;;;5.99;100.00
30730;BME280;17476;48.458;7.928;2023-12-20T00:52:39;100235.03;;;6.01;100.00
30730;BME280;17476;48.458;7.928;2023-12-20T00:55:06;100245.28;;;6.02;100.00
30730;BME280;17476;48.458;7.928;2023-12-20T00:57:31;100252.53;;;5.99;100.00
30730;BME280;17476;48.458;7.928;2023-12-20T00:59:57;100235.03;;;6.01;100.00
30730;BME280;17476;48.458;7.928;2023-12-20T01:02:23;100245.88;;;6.06;100.00
30730;BME280;17476;48.458;7.928;2023-12-20T01:04:49;100245.50;;;6.11;100.00
30730;BME280;17476;48.458;7.928;2023-12-20T01:07:14;100238.75;;;6.29;100.00
30730;BME280;17476;48.458;7.928;2023-12-20T01:09:40;100243.63;;;6.22;100.00
30730;BME280;17476;48.458;7.928;2023-12-20T01:12:06;100245.69;;;6.19;100.00
30730;BME280;17476;48.458;7.928;2023-12-20T01:14:32;100246.63;;;6.18;100.00
30730;BME280;17476;48.458;7.928;2023-12-20T01:16:57;100237.56;;;6.12;100.00
30730;BME280;17476;48.458;7.928;2023-12-20T01:19:24;100245.88;;;6.06;100.00
30730;BME280;17476;48.458;7.928;2023-12-20T01:21:50;100247.28;;;6.10;100.00
30730;BME280;17476;48.458;7.928;2023-12-20T01:24:16;100230.03;;;6.09;100.00
30730;BME280;17476;48.458;7.928;2023-12-20T01:26:42;100231.81;;;6.09;100.00
30730;BME280;17476;48.458;7.928;2023-12-20T01:29:08;100223.84;;;6.00;100.00
30730;BME280;17476;48.458;7.928;2023-12-20T01:31:33;100219.03;;;6.17;100.00
30730;BME280;17476;48.458;7.928;2023-12-20T01:33:59;100217.47;;;6.35;100.00
30730;BME280;17476;48.458;7.928;2023-12-20T01:36:25;100219.41;;;6.12;100.00
30730;BME280;17476;48.458;7.928;2023-12-20T01:38:50;100221.88;;;6.14;100.00
30730;BME280;17476;48.458;7.928;2023-12-20T01:41:16;100223.19;;;6.08;100.00
30730;BME280;17476;48.458;7.928;2023-12-20T01:43:43;100218.81;;;6.09;100.00
30730;BME280;17476;48.458;7.928;2023-12-20T01:46:10;100225.56;;;6.11;100.00
30730;BME280;17476;48.458;7.928;2023-12-20T01:48:36;100219.94;;;6.16;100.00
30730;BME280;17476;48.458;7.928;2023-12-20T01:51:02;100226.09;;;6.15;100.00
30730;BME280;17476;48.458;7.928;2023-12-20T01:53:28;100219.78;;;6.08;100.00
30730;BME280;17476;48.458;7.928;2023-12-20T01:55:55;100223.31;;;6.07;100.00
30730;BME280;17476;48.458;7.928;2023-12-20T01:58:22;100226.28;;;6.02;100.00
30730;BME280;17476;48.458;7.928;2023-12-20T02:00:49;100229.59;;;6.04;100.00
30730;BME280;17476;48.458;7.928;2023-12-20T02:03:15;100230.25;;;5.96;100.00
30730;BME280;17476;48.458;7.928;2023-12-20T02:05:41;100219.59;;;5.99;100.00
30730;BME280;17476;48.458;7.928;2023-12-20T02:08:07;100220.03;;;6.05;100.00
30730;BME280;17476;48.458;7.928;2023-12-20T02:10:33;100217.31;;;6.06;100.00
30730;BME280;17476;48.458;7.928;2023-12-20T02:12:59;100212.69;;;6.10;100.00
30730;BME280;17476;48.458;7.928;2023-12-20T02:15:25;100206.22;;;6.25;100.00
30730;BME280;17476;48.458;7.928;2023-12-20T02:17:51;100204.19;;;6.08;100.00
30730;BME280;17476;48.458;7.928;2023-12-20T02:20:17;100195.16;;;6.02;100.00
30730;BME280;17476;48.458;7.928;2023-12-20T02:22:42;100197.97;;;6.20;100.00
30730;BME280;17476;48.458;7.928;2023-12-20T02:25:08;100207.41;;;6.21;100.00
30730;BME280;17476;48.458;7.928;2023-12-20T02:27:35;100198.16;;;6.28;100.00
30730;BME280;17476;48.458;7.928;2023-12-20T02:30:01;100200.00;;;6.37;100.00
30730;BME280;17476;48.458;7.928;2023-12-20T02:32:27;100204.44;;;6.25;100.00
30730;BME280;17476;48.458;7.928;2023-12-20T02:34:55;100205.63;;;6.21;100.00
30730;BME280;17476;48.458;7.928;2023-12-20T02:37:22;100209.50;;;6.27;100.00
30730;BME280;17476;48.458;7.928;2023-12-20T02:39:47;100207.34;;;6.32;100.00
30730;BME280;17476;48.458;7.928;2023-12-20T02:42:13;100205.44;;;6.34;100.00
30730;BME280;17476;48.458;7.928;2023-12-20T02:44:39;100203.94;;;6.32;100.00
30730;BME280;17476;48.458;7.928;2023-12-20T02:47:05;100202.47;;;6.39;100.00
30730;BME280;17476;48.458;7.928;2023-12-20T02:49:30;100207.34;;;6.32;100.00
30730;BME280;17476;48.458;7.928;2023-12-20T02:51:56;100203.22;;;6.29;100.00
30730;BME280;17476;48.458;7.928;2023-12-20T02:54:25;100209.53;;;6.37;100.00
30730;BME280;17476;48.458;7.928;2023-12-20T02:56:50;100201.34;;;6.32;100.00
30730;BME280;17476;48.458;7.928;2023-12-20T02:59:16;100203.97;;;6.41;100.00
30730;BME280;17476;48.458;7.928;2023-12-20T03:01:45;100204.09;;;6.40;100.00
30730;BME280;17476;48.458;7.928;2023-12-20T03:04:12;100208.19;;;6.42;100.00
30730;BME280;17476;48.458;7.928;2023-12-20T03:06:38;100211.09;;;6.49;100.00
30730;BME280;17476;48.458;7.928;2023-12-20T03:09:04;100221.00;;;6.34;100.00
30730;BME280;17476;48.458;7.928;2023-12-20T03:11:30;100224.28;;;6.36;100.00
30730;BME280;17476;48.458;7.928;2023-12-20T03:13:56;100224.28;;;6.36;100.00
30730;BME280;17476;48.458;7.928;2023-12-20T03:16:23;100226.38;;;6.42;100.00
30730;BME280;17476;48.458;7.928;2023-12-20T03:18:49;100230.06;;;6.40;100.00
30730;BME280;17476;48.458;7.928;2023-12-20T03:21:14;100228.97;;;6.42;100.00
30730;BME280;17476;48.458;7.928;2023-12-20T03:23:40;100225.84;;;6.39;100.00
30730;BME280;17476;48.458;7.928;2023-12-20T03:26:09;100233.13;;;6.45;100.00
30730;BME280;17476;48.458;7.928;2023-12-20T03:28:36;100226.38;;;6.42;100.00
30730;BME280;17476;48.458;7.928;2023-12-20T03:31:03;100220.50;;;6.40;100.00
30730;BME280;17476;48.458;7.928;2023-12-20T03:33:29;100215.56;;;6.37;100.00
30730;BME280;17476;48.458;7.928;2023-12-20T03:35:55;100221.19;;;6.42;100.00
30730;BME280;17476;48.458;7.928;2023-12-20T03:38:21;100227.09;;;6.44;100.00
30730;BME280;17476;48.458;7.928;2023-12-20T03:40:49;100227.59;;;6.38;100.00
30730;BME280;17476;48.458;7.928;2023-12-20T03:43:15;100230.31;;;6.37;100.00
30730;BME280;17476;48.458;7.928;2023-12-20T03:45:42;100235.59;;;6.25;100.00
30730;BME280;17476;48.458;7.928;2023-12-20T03:48:08;100234.69;;;6.36;100.00
30730;BME280;17476;48.458;7.928;2023-12-20T03:50:35;100230.41;;;6.25;100.00
30730;BME280;17476;48.458;7.928;2023-12-20T03:53:01;100226.38;;;6.42;100.00
30730;BME280;17476;48.458;7.928;2023-12-20T03:55:27;100229.13;;;6.41;100.00
30730;BME280;17476;48.458;7.928;2023-12-20T03:57:52;100222.81;;;6.43;100.00
30730;BME280;17476;48.458;7.928;2023-12-20T04:00:18;100231.19;;;6.47;100.00
30730;BME280;17476;48.458;7.928;2023-12-20T04:02:44;100234.31;;;6.41;100.00
30730;BME280;17476;48.458;7.928;2023-12-20T04:05:10;100229.28;;;6.49;100.00
30730;BME280;17476;48.458;7.928;2023-12-20T04:07:36;100226.78;;;6.38;100.00
30730;BME280;17476;48.458;7.928;2023-12-20T04:10:03;100242.88;;;6.32;100.00
30730;BME280;17476;48.458;7.928;2023-12-20T04:12:33;100246.31;;;6.32;100.00
30730;BME280;17476;48.458;7.928;2023-12-20T04:14:59;100234.69;;;6.36;100.00
30730;BME280;17476;48.458;7.928;2023-12-20T04:17:24;100233.50;;;6.40;100.00
30730;BME280;17476;48.458;7.928;2023-12-20T04:19:51;100237.56;;;6.33;100.00
30730;BME280;17476;48.458;7.928;2023-12-20T04:22:20;100243.50;;;6.45;100.00
30730;BME280;17476;48.458;7.928;2023-12-20T04:24:46;100243.09;;;6.49;100.00
30730;BME280;17476;48.458;7.928;2023-12-20T04:27:11;100240.50;;;6.49;100.00
30730;BME280;17476;48.458;7.928;2023-12-20T04:29:37;100244.75;;;6.50;100.00
30730;BME280;17476;48.458;7.928;2023-12-20T04:32:04;100245.69;;;6.49;100.00
30730;BME280;17476;48.458;7.928;2023-12-20T04:34:30;100258.13;;;6.46;100.00
30730;BME280;17476;48.458;7.928;2023-12-20T04:36:56;100264.06;;;6.57;100.00
30730;BME280;17476;48.458;7.928;2023-12-20T04:39:22;100269.72;;;6.42;100.00
30730;BME280;17476;48.458;7.928;2023-12-20T04:41:47;100269.88;;;6.50;100.00
30730;BME280;17476;48.458;7.928;2023-12-20T04:44:14;100273.44;;;6.49;100.00
30730;BME280;17476;48.458;7.928;2023-12-20T04:46:40;100268.47;;;6.67;100.00
30730;BME280;17476;48.458;7.928;2023-12-20T04:49:06;100269.56;;;6.64;100.00
30730;BME280;17476;48.458;7.928;2023-12-20T04:51:35;100284.88;;;6.57;100.00
30730;BME280;17476;48.458;7.928;2023-12-20T04:54:01;100276.72;;;6.72;100.00
30730;BME280;17476;48.458;7.928;2023-12-20T04:56:27;100287.50;;;6.67;100.00
30730;BME280;17476;48.458;7.928;2023-12-20T04:58:53;100291.28;;;6.63;100.00
30730;BME280;17476;48.458;7.928;2023-12-20T05:01:19;100291.25;;;6.53;100.00
30730;BME280;17476;48.458;7.928;2023-12-20T05:03:45;100296.28;;;6.45;100.00
30730;BME280;17476;48.458;7.928;2023-12-20T05:06:10;100290.59;;;6.61;100.00
30730;BME280;17476;48.458;7.928;2023-12-20T05:08:36;100281.84;;;6.62;100.00
30730;BME280;17476;48.458;7.928;2023-12-20T05:11:02;100295.72;;;6.72;100.00
30730;BME280;17476;48.458;7.928;2023-12-20T05:13:28;100291.06;;;6.66;100.00
30730;BME280;17476;48.458;7.928;2023-12-20T05:15:54;100308.00;;;6.70;100.00
30730;BME280;17476;48.458;7.928;2023-12-20T05:18:23;100304.38;;;6.82;100.00
30730;BME280;17476;48.458;7.928;2023-12-20T05:20:50;100306.47;;;6.89;100.00
30730;BME280;17476;48.458;7.928;2023-12-20T05:23:17;100304.47;;;7.02;100.00
30730;BME280;17476;48.458;7.928;2023-12-20T05:25:43;100309.66;;;7.02;100.00
30730;BME280;17476;48.458;7.928;2023-12-20T05:28:09;100307.78;;;7.14;100.00
30730;BME280;17476;48.458;7.928;2023-12-20T05:30:37;100311.13;;;7.25;100.00
30730;BME280;17476;48.458;7.928;2023-12-20T05:33:04;100316.63;;;7.42;100.00
30730;BME280;17476;48.458;7.928;2023-12-20T05:35:29;100311.72;;;7.48;100.00
30730;BME280;17476;48.458;7.928;2023-12-20T05:37:55;100313.22;;;7.51;100.00
30730;BME280;17476;48.458;7.928;2023-12-20T05:40:21;100324.56;;;7.50;100.00
30730;BME280;17476;48.458;7.928;2023-12-20T05:42:46;100313.00;;;7.23;100.00
30730;BME280;17476;48.458;7.928;2023-12-20T05:45:15;100317.31;;;7.03;100.00
30730;BME280;17476;48.458;7.928;2023-12-20T05:47:41;100325.66;;;6.97;100.00
30730;BME280;17476;48.458;7.928;2023-12-20T05:50:07;100331.13;;;6.94;100.00
30730;BME280;17476;48.458;7.928;2023-12-20T05:52:33;100335.63;;;6.92;100.00
30730;BME280;17476;48.458;7.928;2023-12-20T05:54:59;100330.28;;;6.63;100.00
30730;BME280;17476;48.458;7.928;2023-12-20T05:57:27;100332.75;;;6.65;100.00
30730;BME280;17476;48.458;7.928;2023-12-20T05:59:53;100338.44;;;6.79;100.00
30730;BME280;17476;48.458;7.928;2023-12-20T06:02:18;100346.00;;;6.62;100.00
30730;BME280;17476;48.458;7.928;2023-12-20T06:04:45;100343.38;;;6.82;100.00
30730;BME280;17476;48.458;7.928;2023-12-20T06:07:16;100359.16;;;6.70;100.00
30730;BME280;17476;48.458;7.928;2023-12-20T06:09:41;100354.38;;;6.65;100.00
30730;BME280;17476;48.458;7.928;2023-12-20T06:12:08;100345.97;;;6.82;100.00
30730;BME280;17476;48.458;7.928;2023-12-20T06:14:36;100345.84;;;6.84;100.00
30730;BME280;17476;48.458;7.928;2023-12-20T06:17:02;100348.47;;;6.63;100.00
30730;BME280;17476;48.458;7.928;2023-12-20T06:19:28;100351.69;;;6.76;100.00
30730;BME280;17476;48.458;7.928;2023-12-20T06:21:54;100356.34;;;6.73;100.00
30730;BME280;17476;48.458;7.928;2023-12-20T06:24:20;100354.63;;;6.62;100.00
30730;BME280;17476;48.458;7.928;2023-12-20T06:26:47;100353.34;;;6.77;100.00
30730;BME280;17476;48.458;7.928;2023-12-20T06:29:12;100360.84;;;7.01;100.00
30730;BME280;17476;48.458;7.928;2023-12-20T06:31:38;100370.22;;;7.23;100.00
30730;BME280;17476;48.458;7.928;2023-12-20T06:34:04;100368.81;;;6.79;100.00
30730;BME280;17476;48.458;7.928;2023-12-20T06:36:32;100366.91;;;6.81;100.00
30730;BME280;17476;48.458;7.928;2023-12-20T06:38:58;100368.16;;;6.87;100.00
30730;BME280;17476;48.458;7.928;2023-12-20T06:41:24;100371.84;;;6.63;100.00
30730;BME280;17476;48.458;7.928;2023-12-20T06:43:50;100367.16;;;6.78;100.00
30730;BME280;17476;48.458;7.928;2023-12-20T06:46:17;100373.84;;;6.71;100.00
30730;BME280;17476;48.458;7.928;2023-12-20T06:48:43;100371.72;;;6.86;100.00
30730;BME280;17476;48.458;7.928;2023-12-20T06:51:15;100377.00;;;6.74;100.00
30730;BME280;17476;48.458;7.928;2023-12-20T06:53:41;100380.50;;;6.94;100.00
30730;BME280;17476;48.458;7.928;2023-12-20T06:56:06;100384.63;;;6.97;100.00
30730;BME280;17476;48.458;7.928;2023-12-20T06:58:33;100383.13;;;6.94;100.00
30730;BME280;17476;48.458;7.928;2023-12-20T07:00:59;100394.59;;;6.92;100.00
30730;BME280;17476;48.458;7.928;2023-12-20T07:03:24;100401.66;;;7.10;100.00
30730;BME280;17476;48.458;7.928;2023-12-20T07:05:50;100405.22;;;7.09;100.00
30730;BME280;17476;48.458;7.928;2023-12-20T07:08:16;100419.44;;;7.05;100.00
30730;BME280;17476;48.458;7.928;2023-12-20T07:10:41;100417.97;;;7.13;100.00
30730;BME280;17476;48.458;7.928;2023-12-20T07:13:07;100414.94;;;7.07;100.00
30730;BME280;17476;48.458;7.928;2023-12-20T07:15:33;100419.44;;;7.05;100.00
30730;BME280;17476;48.458;7.928;2023-12-20T07:17:59;100422.13;;;6.94;100.00
30730;BME280;17476;48.458;7.928;2023-12-20T07:20:26;100424.72;;;6.94;100.00
30730;BME280;17476;48.458;7.928;2023-12-20T07:22:52;100439.00;;;7.30;100.00
30730;BME280;17476;48.458;7.928;2023-12-20T07:25:17;100443.38;;;7.30;100.00
30730;BME280;17476;48.458;7.928;2023-12-20T07:27:43;100444.72;;;7.24;100.00
30730;BME280;17476;48.458;7.928;2023-12-20T07:30:10;100443.97;;;7.43;100.00
30730;BME280;17476;48.458;7.928;2023-12-20T07:32:36;100442.66;;;7.58;100.00
30730;BME280;17476;48.458;7.928;2023-12-20T07:35:01;100449.25;;;7.62;100.00
30730;BME280;17476;48.458;7.928;2023-12-20T07:37:28;100449.09;;;7.54;100.00
30730;BME280;17476;48.458;7.928;2023-12-20T07:39:54;100466.75;;;7.20;100.00
30730;BME280;17476;48.458;7.928;2023-12-20T07:42:20;100470.66;;;7.35;100.00
30730;BME280;17476;48.458;7.928;2023-12-20T07:44:47;100463.91;;;7.54;100.00
30730;BME280;17476;48.458;7.928;2023-12-20T07:47:13;100467.47;;;7.62;100.00
30730;BME280;17476;48.458;7.928;2023-12-20T07:49:42;100461.75;;;7.69;100.00
30730;BME280;17476;48.458;7.928;2023-12-20T07:52:08;100467.13;;;7.77;100.00
30730;BME280;17476;48.458;7.928;2023-12-20T07:54:34;100473.72;;;7.81;100.00
30730;BME280;17476;48.458;7.928;2023-12-20T07:56:59;100474.25;;;7.84;100.00
30730;BME280;17476;48.458;7.928;2023-12-20T07:59:25;100479.34;;;7.86;100.00
30730;BME280;17476;48.458;7.928;2023-12-20T08:01:51;100483.47;;;7.88;100.00
30730;BME280;17476;48.458;7.928;2023-12-20T08:04:17;100483.31;;;7.90;100.00
30730;BME280;17476;48.458;7.928;2023-12-20T08:06:42;100497.09;;;7.71;100.00
30730;BME280;17476;48.458;7.928;2023-12-20T08:09:08;100497.91;;;7.72;100.00
30730;BME280;17476;48.458;7.928;2023-12-20T08:11:34;100503.56;;;7.77;100.00
30730;BME280;17476;48.458;7.928;2023-12-20T08:14:00;100492.09;;;7.89;100.00
30730;BME280;17476;48.458;7.928;2023-12-20T08:16:26;100505.28;;;7.97;100.00
30730;BME280;17476;48.458;7.928;2023-12-20T08:18:51;100514.88;;;7.97;100.00
30730;BME280;17476;48.458;7.928;2023-12-20T08:21:17;100512.84;;;8.00;100.00
30730;BME280;17476;48.458;7.928;2023-12-20T08:23:46;100511.34;;;8.07;100.00
30730;BME280;17476;48.458;7.928;2023-12-20T08:26:13;100516.72;;;8.15;100.00
30730;BME280;17476;48.458;7.928;2023-12-20T08:28:39;100519.47;;;8.14;100.00
30730;BME280;17476;48.458;7.928;2023-12-20T08:31:04;100522.91;;;8.24;100.00
30730;BME280;17476;48.458;7.928;2023-12-20T08:33:30;100521.41;;;8.31;100.00
30730;BME280;17476;48.458;7.928;2023-12-20T08:35:56;100516.50;;;8.38;100.00
30730;BME280;17476;48.458;7.928;2023-12-20T08:38:21;100503.88;;;8.33;100.00
30730;BME280;17476;48.458;7.928;2023-12-20T08:40:47;100508.22;;;8.33;100.00
30730;BME280;17476;48.458;7.928;2023-12-20T08:43:14;100516.31;;;8.30;100.00
30730;BME280;17476;48.458;7.928;2023-12-20T08:45:42;100522.50;;;8.29;100.00
30730;BME280;17476;48.458;7.928;2023-12-20T08:48:08;100535.53;;;8.29;100.00
30730;BME280;17476;48.458;7.928;2023-12-20T08:50:34;100530.31;;;8.29;100.00
30730;BME280;17476;48.458;7.928;2023-12-20T08:53:00;100534.72;;;8.28;100.00
30730;BME280;17476;48.458;7.928;2023-12-20T08:55:26;100541.00;;;8.26;100.00
30730;BME280;17476;48.458;7.928;2023-12-20T08:57:53;100540.31;;;8.24;100.00
30730;BME280;17476;48.458;7.928;2023-12-20T09:00:19;100536.06;;;8.23;100.00
30730;BME280;17476;48.458;7.928;2023-12-20T09:02:46;100533.97;;;8.16;100.00
30730;BME280;17476;48.458;7.928;2023-12-20T09:05:12;100538.50;;;8.14;100.00
30730;BME280;17476;48.458;7.928;2023-12-20T09:07:37;100539.59;;;8.12;100.00
30730;BME280;17476;48.458;7.928;2023-12-20T09:10:03;100543.28;;;8.09;100.00
30730;BME280;17476;48.458;7.928;2023-12-20T09:12:29;100535.75;;;8.06;100.00
30730;BME280;17476;48.458;7.928;2023-12-20T09:14:55;100538.75;;;8.02;100.00
30730;BME280;17476;48.458;7.928;2023-12-20T09:17:21;100525.72;;;8.02;100.00
30730;BME280;17476;48.458;7.928;2023-12-20T09:19:48;100532.00;;;7.99;100.00
30730;BME280;17476;48.458;7.928;2023-12-20T09:22:14;100535.16;;;7.93;100.00
30730;BME280;17476;48.458;7.928;2023-12-20T09:24:40;100533.25;;;7.95;100.00
30730;BME280;17476;48.458;7.928;2023-12-20T09:27:06;100529.16;;;8.02;100.00
30730;BME280;17476;48.458;7.928;2023-12-20T09:29:32;100527.09;;;8.06;100.00
30730;BME280;17476;48.458;7.928;2023-12-20T09:31:58;100531.22;;;8.08;100.00
30730;BME280;17476;48.458;7.928;2023-12-20T09:34:24;100546.84;;;8.08;100.00
30730;BME280;17476;48.458;7.928;2023-12-20T09:36:52;100547.00;;;8.07;100.00
30730;BME280;17476;48.458;7.928;2023-12-20T09:39:18;100552.22;;;8.16;100.00
30730;BME280;17476;48.458;7.928;2023-12-20T09:42:00;100548.50;;;8.19;100.00
30730;BME280;17476;48.458;7.928;2023-12-20T09:44:27;100547.44;;;8.21;100.00
30730;BME280;17476;48.458;7.928;2023-12-20T09:46:55;100551.00;;;8.20;100.00
30730;BME280;17476;48.458;7.928;2023-12-20T09:49:22;100546.19;;;8.26;100.00
30730;BME280;17476;48.458;7.928;2023-12-20T09:51:51;100547.31;;;8.23;100.00
30730;BME280;17476;48.458;7.928;2023-12-20T09:54:18;100553.28;;;8.04;100.00
30730;BME280;17476;48.458;7.928;2023-12-20T09:56:47;100561.63;;;7.98;100.00
30730;BME280;17476;48.458;7.928;2023-12-20T09:59:13;100565.69;;;7.91;98.85
30730;BME280;17476;48.458;7.928;2023-12-20T10:01:43;100557.94;;;8.01;100.00
30730;BME280;17476;48.458;7.928;2023-12-20T10:04:11;100568.53;;;8.09;99.23
30730;BME280;17476;48.458;7.928;2023-12-20T10:06:42;100564.00;;;8.11;98.27
30730;BME280;17476;48.458;7.928;2023-12-20T10:09:09;100560.47;;;8.21;95.79
30730;BME280;17476;48.458;7.928;2023-12-20T10:11:40;100562.25;;;8.31;93.38
30730;BME280;17476;48.458;7.928;2023-12-20T10:14:07;100559.59;;;8.42;92.83
30730;BME280;17476;48.458;7.928;2023-12-20T10:16:33;100556.03;;;8.53;92.11
30730;BME280;17476;48.458;7.928;2023-12-20T10:19:00;100543.16;;;8.61;90.06
30730;BME280;17476;48.458;7.928;2023-12-20T10:21:29;100542.31;;;8.80;90.52
30730;BME280;17476;48.458;7.928;2023-12-20T10:23:56;100544.50;;;8.94;89.96
30730;BME280;17476;48.458;7.928;2023-12-20T10:26:25;100536.97;;;9.10;90.05
30730;BME280;17476;48.458;7.928;2023-12-20T10:28:59;100536.81;;;9.21;86.38
30730;BME280;17476;48.458;7.928;2023-12-20T10:31:34;100537.66;;;8.73;88.54
30730;BME280;17476;48.458;7.928;2023-12-20T10:34:02;100534.06;;;9.13;89.34
30730;BME280;17476;48.458;7.928;2023-12-20T10:36:31;100535.31;;;9.19;88.95
30730;BME280;17476;48.458;7.928;2023-12-20T10:38:58;100531.88;;;8.99;84.60
30730;BME280;17476;48.458;7.928;2023-12-20T10:41:33;100534.53;;;8.89;83.74
30730;BME280;17476;48.458;7.928;2023-12-20T10:44:02;100530.66;;;8.93;83.90
30730;BME280;17476;48.458;7.928;2023-12-20T10:46:29;100526.53;;;8.71;83.73
30730;BME280;17476;48.458;7.928;2023-12-20T10:48:56;100520.22;;;8.64;83.99
30730;BME280;17476;48.458;7.928;2023-12-20T10:51:23;100509.53;;;8.48;84.19
30730;BME280;17476;48.458;7.928;2023-12-20T10:53:53;100506.19;;;8.27;88.56
30730;BME280;17476;48.458;7.928;2023-12-20T10:56:20;100506.09;;;7.88;90.36
30730;BME280;17476;48.458;7.928;2023-12-20T10:58:52;100518.34;;;8.07;89.35
30730;BME280;17476;48.458;7.928;2023-12-20T11:01:18;100520.44;;;8.32;88.66
30730;BME280;17476;48.458;7.928;2023-12-20T11:03:51;100516.72;;;8.15;90.74
30730;BME280;17476;48.458;7.928;2023-12-20T11:09:20;100505.81;;;7.91;92.96
30730;BME280;17476;48.458;7.928;2023-12-20T11:12:15;100513.66;;;8.01;92.09
30730;BME280;17476;48.458;7.928;2023-12-20T11:14:47;100503.34;;;7.89;92.05
30730;BME280;17476;48.458;7.928;2023-12-20T11:17:14;100492.78;;;7.91;92.71
30730;BME280;17476;48.458;7.928;2023-12-20T11:22:26;100487.41;;;7.83;90.30
30730;BME280;17476;48.458;7.928;2023-12-20T11:24:54;100485.31;;;7.67;91.80
30730;BME280;17476;48.458;7.928;2023-12-20T11:27:24;100487.16;;;7.86;92.06
30730;BME280;17476;48.458;7.928;2023-12-20T11:29:57;100491.44;;;7.97;87.96
30730;BME280;17476;48.458;7.928;2023-12-20T11:35:00;100480.56;;;7.82;90.85
30730;BME280;17476;48.458;7.928;2023-12-20T11:37:31;100472.66;;;7.93;91.39
30730;BME280;17476;48.458;7.928;2023-12-20T11:40:06;100470.94;;;8.13;90.05
30730;BME280;17476;48.458;7.928;2023-12-20T11:42:37;100468.00;;;7.97;90.21
30730;BME280;17476;48.458;7.928;2023-12-20T11:45:04;100480.44;;;7.83;90.87
30730;BME280;17476;48.458;7.928;2023-12-20T11:47:31;100476.78;;;8.05;91.14
30730;BME280;17476;48.458;7.928;2023-12-20T11:49:57;100475.28;;;8.03;87.47
30730;BME280;17476;48.458;7.928;2023-12-20T11:52:23;100479.56;;;8.13;88.82
30730;BME280;17476;48.458;7.928;2023-12-20T11:54:48;100479.06;;;7.79;89.59
30730;BME280;17476;48.458;7.928;2023-12-20T11:57:14;100472.97;;;8.19;89.67
30730;BME280;17476;48.458;7.928;2023-12-20T11:59:40;100466.97;;;8.28;89.29
30730;BME280;17476;48.458;7.928;2023-12-20T12:02:06;100468.75;;;8.28;87.25
30730;BME280;17476;48.458;7.928;2023-12-20T12:04:32;100477.28;;;8.49;86.39
30730;BME280;17476;48.458;7.928;2023-12-20T12:06:57;100475.75;;;8.27;86.37
30730;BME280;17476;48.458;7.928;2023-12-20T12:09:23;100475.84;;;8.16;86.87
30730;BME280;17476;48.458;7.928;2023-12-20T12:11:49;100471.81;;;8.42;87.68
30730;BME280;17476;48.458;7.928;2023-12-20T12:14:15;100469.59;;;8.38;87.07
30730;BME280;17476;48.458;7.928;2023-12-20T12:16:43;100467.34;;;8.14;88.50
30730;BME280;17476;48.458;7.928;2023-12-20T12:19:21;100467.31;;;8.04;89.23
30730;BME280;17476;48.458;7.928;2023-12-20T12:21:47;100473.97;;;7.78;88.69
30730;BME280;17476;48.458;7.928;2023-12-20T12:24:13;100473.19;;;7.87;88.64
30730;BME280;17476;48.458;7.928;2023-12-20T12:26:39;100467.44;;;7.93;88.21
30730;BME280;17476;48.458;7.928;2023-12-20T12:29:07;100465.66;;;7.93;88.29
30730;BME280;17476;48.458;7.928;2023-12-20T12:31:33;100459.75;;;7.91;87.69
30730;BME280;17476;48.458;7.928;2023-12-20T12:33:59;100463.97;;;7.83;89.13
30730;BME280;17476;48.458;7.928;2023-12-20T12:36:25;100457.66;;;7.76;89.59
30730;BME280;17476;48.458;7.928;2023-12-20T12:38:51;100456.59;;;7.88;86.98
30730;BME280;17476;48.458;7.928;2023-12-20T12:41:17;100458.06;;;7.71;86.70
30730;BME280;17476;48.458;7.928;2023-12-20T12:43:43;100445.19;;;7.70;88.90
30730;BME280;17476;48.458;7.928;2023-12-20T12:46:08;100448.75;;;7.69;88.67
30730;BME280;17476;48.458;7.928;2023-12-20T12:48:34;100447.41;;;7.84;89.10
30730;BME280;17476;48.458;7.928;2023-12-20T12:51:00;100440.31;;;7.86;89.15
30730;BME280;17476;48.458;7.928;2023-12-20T12:53:26;100432.50;;;7.96;87.74
30730;BME280;17476;48.458;7.928;2023-12-20T12:55:55;100447.41;;;7.84;86.31
30730;BME280;17476;48.458;7.928;2023-12-20T12:58:21;100443.84;;;7.85;88.00